Norfolk Ns (Chambers Fld) Airport
KNGU : now visible

Airfield :











YOU CAN JOIN US ON...

 
LOGIN :

Register | Disclaimer

   EN    FR    IT 

 









Legend :    VFR   Marginal VFR   IFR   Intensive IFR   Very Intensive IFR
Visi :
Ceiling :
>= 8 km
>= 3000ft
5 to 8 km
1000 to 3000 ft
1500m to 5 km
500 to 1000 ft
800 to 1500m
200 to 500 ft
< 800m
< 200 ft
Symbols :   Thunderstorms  Fog  Heavy snow  Heavy precipitations  Wind > 20 kt






- Airport Elevation : 17 ft


KNGU - Norfolk Ns (Chambers Fld)

CURRENT METAR :
  • 281859Z 03006KT 10SM SCT036 16/06 A3005 RMK AO2 SLP175 T01560061 $

EXPIRED METARs :
  • 281759Z 01008KT 10SM BKN036 16/09 A3006 RMK AO2 SLP180 T01560089 10161 20100 55005 $
  • 281659Z 35006KT 10SM BKN023 OVC031 15/09 A3006 RMK AO2 SLP179 T01500089 $
  • 281645Z 04005KT 10SM SCT012 BKN020 OVC029 15/09 A3006 RMK AO2 T01500089 $

TAF TAF KNGU
Valid from the 28 at 15:00 until the 29 at 15:00 UTC


2815/2915 VRB05KT 9000 BR FEW010 SCT015 QNH3000INS
TEMPO 2815/2817 8000 BR BKN008 BKN015
TEMPO 2817/2820 02008KT
BECMG 2820/2822 VRB04KT 9999 NSW FEW020 QNH3002INS
FM290300 VRB05KT 9999 FEW250 QNH3013INS T16/2819Z T07/2911Z FN00216
KZDC FIR / North America



MET'MAP, your aeronautical weather chart ! - Copyright ORBIFLY December 2007 - Disclaimer

ORBIFLY MET'MAP TEAM :

Programming & Development : Alexandra Zaïnal
Concept & original design : Baudouin d'Aumeries
Assistance for programming : Marc-Olivier Méhu
Technical & hardware support : Manuel Goepfert

Contact : metmap@orbifly.com




SOURCES & CREDITS :

   NOAA       Earth
Advisory